Time;durP1;ratioP1;P1;durP2;ratioP2;P2;SDS_P1;SDS_P2;PMS_P1;PMS_P2;Temp;Humidity;BMP_temperature;BMP_pressure;BME280_temperature;BME280_humidity;BME280_pressure;Samples;Min_cycle;Max_cycle;Signal;HPM_P1;HPM_P2
2023/04/16 00:05:10;;;;;;;15.27;5.22;;;;;;;10.55;77.73;100998.66;15477554;28;20302;-53
2023/04/16 00:12:44;;;;;;;7.43;4.35;;;;;;;10.29;78.82;101002.09;15464270;28;20100;-49
2023/04/16 00:20:18;;;;;;;10.98;4.63;;;;;;;10.35;78.37;101010.19;15460436;28;20042;-49
2023/04/16 00:27:53;;;;;;;7.97;4.25;;;;;;;10.12;79.32;101006.97;15462468;28;20097;-49
2023/04/16 00:35:26;;;;;;;10.48;4.82;;;;;;;10.45;78.20;101005.25;15459389;28;20051;-48
2023/04/16 00:43:00;;;;;;;9.67;5.47;;;;;;;10.24;78.48;101010.75;15459290;28;20074;-51
2023/04/16 00:50:33;;;;;;;13.57;4.60;;;;;;;10.19;78.86;101010.50;15475113;28;20077;-52
2023/04/16 00:58:08;;;;;;;7.22;4.22;;;;;;;10.37;77.03;101015.34;15457016;28;20101;-50
2023/04/16 01:05:41;;;;;;;10.40;5.85;;;;;;;9.87;79.91;101015.50;15458562;28;20043;-51
2023/04/16 01:13:16;;;;;;;6.35;5.10;;;;;;;10.32;78.52;101021.31;15454823;28;20042;-49
2023/04/16 01:20:51;;;;;;;10.18;5.30;;;;;;;10.38;78.00;101030.41;15458353;28;20094;-51
2023/04/16 01:28:24;;;;;;;10.90;5.78;;;;;;;10.50;77.46;101031.47;15438074;28;20543;-52
2023/04/16 01:35:59;;;;;;;14.30;5.20;;;;;;;10.62;76.98;101043.25;15428349;28;20050;-52
2023/04/16 01:43:32;;;;;;;8.55;4.03;;;;;;;10.36;78.01;101045.88;15474153;28;20054;-49
2023/04/16 01:51:07;;;;;;;6.70;4.00;;;;;;;10.31;78.27;101043.81;15478632;28;20050;-52
2023/04/16 01:58:41;;;;;;;8.48;5.70;;;;;;;10.52;77.33;101050.06;15460773;28;20054;-49
2023/04/16 02:06:16;;;;;;;10.98;5.55;;;;;;;10.58;76.75;101042.00;15468803;28;20089;-51
2023/04/16 02:13:49;;;;;;;7.85;4.75;;;;;;;10.50;77.18;101060.19;15459178;28;20384;-49
2023/04/16 02:21:26;;;;;;;9.38;4.80;;;;;;;10.08;78.87;101062.03;15484098;28;20042;-49
2023/04/16 02:29:00;;;;;;;13.63;5.40;;;;;;;10.42;77.22;101061.16;15457355;28;20138;-49
2023/04/16 02:36:43;;;;;;;12.07;5.07;;;;;;;10.02;78.66;101068.19;15461483;28;20102;-52
2023/04/16 02:44:16;;;;;;;8.75;4.85;;;;;;;10.07;78.64;101063.91;15445932;28;20038;-52
2023/04/16 02:51:50;;;;;;;14.93;5.13;;;;;;;10.06;78.58;101074.81;15462457;28;20568;-49
2023/04/16 02:59:42;;;;;;;;;;;;;;;9.65;79.62;101071.06;15428144;28;20043;-53
2023/04/16 03:07:17;;;;;;;7.97;4.27;;;;;;;9.65;79.36;101081.81;15447591;28;20371;-50
2023/04/16 03:14:50;;;;;;;8.38;5.00;;;;;;;9.59;79.99;101085.25;15453961;28;20619;-49
2023/04/16 03:22:25;;;;;;;11.77;5.35;;;;;;;9.71;79.44;101090.91;15459284;28;20077;-50
2023/04/16 03:29:58;;;;;;;8.73;5.22;;;;;;;9.82;78.47;101100.25;15451367;28;20042;-53
2023/04/16 03:37:35;;;;;;;11.93;4.85;;;;;;;9.33;80.11;101098.44;15458273;28;20050;-49
2023/04/16 03:45:09;;;;;;;14.73;6.28;;;;;;;9.06;81.42;101100.88;15449085;28;20038;-54
2023/04/16 03:52:45;;;;;;;14.60;5.40;;;;;;;9.02;81.01;101107.63;15422972;28;20155;-50
2023/04/16 04:00:20;;;;;;;11.32;5.55;;;;;;;9.24;80.78;101113.81;15436699;28;20806;-53
2023/04/16 04:08:06;;;;;;;10.88;5.32;;;;;;;9.21;80.66;101124.91;15396908;28;20042;-50
2023/04/16 04:15:39;;;;;;;22.38;6.55;;;;;;;9.22;80.44;101136.44;15433910;28;20046;-55
2023/04/16 04:23:13;;;;;;;16.05;6.00;;;;;;;9.15;80.98;101141.75;15437015;28;20045;-49
2023/04/16 04:30:46;;;;;;;10.68;5.53;;;;;;;9.24;80.30;101153.19;15465244;28;20042;-50
2023/04/16 04:38:24;;;;;;;12.70;5.28;;;;;;;9.25;80.19;101150.28;15483023;28;20046;-52
2023/04/16 04:46:00;;;;;;;11.90;6.18;;;;;;;9.41;79.46;101159.91;15474575;28;20039;-52
2023/04/16 04:53:38;;;;;;;9.65;4.68;;;;;;;9.56;78.26;101167.88;15467309;28;20042;-54
2023/04/16 05:01:11;;;;;;;13.38;5.63;;;;;;;9.24;79.09;101177.28;15427522;28;20058;-50
2023/04/16 05:08:45;;;;;;;13.33;5.57;;;;;;;9.08;79.79;101181.00;15454862;28;20597;-49
2023/04/16 05:16:18;;;;;;;12.40;5.57;;;;;;;9.20;80.27;101187.53;15441273;28;20066;-49
2023/04/16 05:23:55;;;;;;;7.93;5.73;;;;;;;9.30;79.11;101192.59;15458683;28;20643;-52
2023/04/16 05:31:28;;;;;;;18.73;7.00;;;;;;;9.07;79.89;101203.47;15453909;28;20043;-52
2023/04/16 05:39:04;;;;;;;13.18;5.60;;;;;;;9.07;80.46;101204.28;15464354;28;20568;-53
2023/04/16 05:46:36;;;;;;;14.13;6.85;;;;;;;9.08;80.05;101213.97;15453781;28;20074;-51
2023/04/16 05:54:11;;;;;;;7.37;6.03;;;;;;;9.08;80.59;101213.97;15484136;28;20050;-50
2023/04/16 06:01:44;;;;;;;15.55;7.32;;;;;;;9.65;77.69;101225.69;15450811;28;20051;-50
2023/04/16 06:09:18;;;;;;;9.95;5.05;;;;;;;9.61;78.00;101235.97;15467865;28;20566;-48
2023/04/16 06:16:51;;;;;;;9.30;5.63;;;;;;;9.93;77.04;101239.13;15481419;28;20134;-50
2023/04/16 06:24:25;;;;;;;5.67;4.70;;;;;;;9.33;78.92;101243.94;15480073;28;20558;-53
2023/04/16 06:31:58;;;;;;;12.98;5.13;;;;;;;9.31;79.78;101255.84;15474759;28;20043;-55
2023/04/16 06:39:32;;;;;;;12.10;5.17;;;;;;;9.55;78.82;101258.16;15461850;28;20050;-50
2023/04/16 06:47:05;;;;;;;10.38;5.93;;;;;;;9.49;79.32;101258.09;15450456;28;20301;-51
2023/04/16 06:54:40;;;;;;;14.07;5.83;;;;;;;9.65;78.76;101253.34;15464225;28;20129;-51
2023/04/16 07:02:13;;;;;;;6.93;3.88;;;;;;;9.68;79.00;101258.28;15467297;28;20053;-49
2023/04/16 07:09:48;;;;;;;12.50;4.85;;;;;;;10.07;77.67;101267.75;15479237;28;20050;-50
2023/04/16 07:17:21;;;;;;;12.50;5.10;;;;;;;9.91;78.44;101273.34;15483717;28;20415;-52
2023/04/16 07:24:55;;;;;;;14.67;4.90;;;;;;;10.18;76.59;101280.59;15465847;28;20070;-48
2023/04/16 07:32:28;;;;;;;8.60;5.05;;;;;;;10.46;76.31;101295.91;15454352;28;20055;-49
2023/04/16 07:40:03;;;;;;;12.13;4.70;;;;;;;10.81;75.43;101294.06;15433903;28;20551;-53
2023/04/16 07:47:35;;;;;;;9.05;5.00;;;;;;;10.52;76.09;101305.84;15481345;28;20500;-51
2023/04/16 07:55:10;;;;;;;8.85;4.20;;;;;;;9.94;78.61;101313.22;15487907;28;20050;-52
2023/04/16 08:02:44;;;;;;;8.20;4.50;;;;;;;9.94;78.03;101319.41;15463893;28;20042;-49
2023/04/16 08:10:18;;;;;;;8.65;4.47;;;;;;;10.09;77.16;101321.19;15453597;28;20117;-51
2023/04/16 08:17:51;;;;;;;11.88;4.63;;;;;;;10.23;76.28;101331.00;15465966;28;20047;-49
2023/04/16 08:25:25;;;;;;;6.30;4.50;;;;;;;10.49;76.30;101341.13;15453461;28;20520;-52
2023/04/16 08:33:00;;;;;;;7.82;4.15;;;;;;;10.30;76.59;101341.81;15408786;28;20086;-49
2023/04/16 08:40:38;;;;;;;6.40;2.85;;;;;;;10.53;76.87;101352.31;15428684;28;20082;-51
2023/04/16 08:48:14;;;;;;;7.18;3.40;;;;;;;10.60;75.92;101362.09;15447208;28;20692;-52
2023/04/16 08:55:51;;;;;;;5.00;3.00;;;;;;;10.59;76.06;101363.13;15466041;28;20057;-56
2023/04/16 09:03:24;;;;;;;4.57;2.72;;;;;;;10.95;74.73;101368.31;15474616;28;20078;-55
2023/04/16 09:10:59;;;;;;;9.35;4.65;;;;;;;10.67;75.57;101376.38;15463152;28;20066;-54
2023/04/16 09:18:32;;;;;;;3.78;2.28;;;;;;;10.32;76.15;101388.06;15472286;28;20050;-57
2023/04/16 09:26:06;;;;;;;6.15;2.97;;;;;;;10.47;76.22;101394.19;15423773;28;20542;-56
2023/04/16 09:33:41;;;;;;;7.05;3.58;;;;;;;10.37;76.85;101399.06;15464010;28;20042;-57
2023/04/16 09:41:17;;;;;;;8.63;3.47;;;;;;;10.41;76.27;101400.34;15438896;28;20408;-58
2023/04/16 09:48:50;;;;;;;6.43;3.38;;;;;;;10.58;75.40;101409.75;15395346;28;20055;-57
2023/04/16 09:56:25;;;;;;;10.57;3.92;;;;;;;10.61;75.27;101413.91;15429501;28;20042;-55
2023/04/16 10:03:58;;;;;;;6.88;3.72;;;;;;;10.84;76.14;101419.06;15452066;28;20283;-55
2023/04/16 10:11:33;;;;;;;4.20;2.73;;;;;;;11.33;74.52;101412.75;15427172;28;20466;-52
2023/04/16 10:19:06;;;;;;;6.35;3.00;;;;;;;11.19;74.54;101422.59;15423452;28;20351;-54
2023/04/16 10:26:41;;;;;;;5.47;2.75;;;;;;;11.39;74.36;101428.94;15433265;28;20109;-52
2023/04/16 10:34:15;;;;;;;4.82;3.00;;;;;;;11.95;72.29;101430.66;15431295;28;20038;-51
2023/04/16 10:41:50;;;;;;;9.40;3.50;;;;;;;11.48;73.37;101432.28;15453863;28;20460;-51
2023/04/16 10:49:25;;;;;;;5.05;2.38;;;;;;;11.29;74.42;101433.00;15459739;28;20073;-52
2023/04/16 10:57:03;;;;;;;9.20;5.28;;;;;;;11.39;73.24;101441.53;15439621;28;20484;-52
2023/04/16 11:04:39;;;;;;;6.28;3.85;;;;;;;10.96;74.48;101449.75;15413740;28;20555;-52
2023/04/16 11:12:18;;;;;;;5.10;2.75;;;;;;;11.37;73.44;101452.47;15435804;28;20050;-54
2023/04/16 11:19:51;;;;;;;8.27;3.95;;;;;;;11.32;74.08;101451.41;15404582;28;20062;-52
2023/04/16 11:27:31;;;;;;;13.45;3.13;;;;;;;11.69;73.22;101450.16;15404850;28;20074;-52
2023/04/16 11:35:12;;;;;;;6.30;4.10;;;;;;;11.87;72.03;101465.78;15404562;28;20054;-55
2023/04/16 11:42:46;;;;;;;9.60;4.50;;;;;;;11.90;71.74;101468.91;15427451;28;20070;-54
2023/04/16 11:50:21;;;;;;;7.78;3.95;;;;;;;11.33;73.25;101469.19;15460120;28;20140;-53
2023/04/16 11:58:11;;;;;;;8.93;3.75;;;;;;;11.58;71.69;101474.94;15452169;28;20050;-53
2023/04/16 12:05:46;;;;;;;9.85;3.83;;;;;;;11.87;72.30;101477.38;15444564;28;20042;-52
2023/04/16 12:13:20;;;;;;;6.72;3.63;;;;;;;12.35;71.53;101474.63;15439539;28;20054;-53
2023/04/16 12:20:54;;;;;;;7.15;3.08;;;;;;;12.83;70.85;101479.88;15451267;28;20494;-53
2023/04/16 12:28:31;;;;;;;7.38;2.88;;;;;;;12.02;71.11;101479.91;15430933;28;20416;-51
2023/04/16 12:36:17;;;;;;;6.53;3.22;;;;;;;11.95;71.43;101487.16;15419159;28;20832;-52
2023/04/16 12:43:51;;;;;;;4.95;2.60;;;;;;;11.46;72.55;101486.22;15418983;28;20059;-55
2023/04/16 12:51:25;;;;;;;4.25;2.92;;;;;;;11.15;72.72;101489.34;15430288;28;20071;-53
2023/04/16 12:59:00;;;;;;;6.28;2.50;;;;;;;11.31;73.16;101496.28;15424938;28;20587;-56
2023/04/16 13:06:33;;;;;;;5.65;3.60;;;;;;;11.41;73.04;101495.91;15421291;28;20097;-54
2023/04/16 13:14:07;;;;;;;11.07;3.83;;;;;;;11.30;71.92;101500.00;15434291;28;20049;-52
2023/04/16 13:21:40;;;;;;;6.50;2.38;;;;;;;11.29;72.56;101502.88;15424871;28;20054;-53
2023/04/16 13:29:18;;;;;;;4.38;1.92;;;;;;;11.73;71.34;101511.41;15437461;28;20742;-51
2023/04/16 13:36:50;;;;;;;8.10;2.97;;;;;;;10.99;74.17;101519.19;15418575;28;20142;-54
2023/04/16 13:44:25;;;;;;;4.27;2.23;;;;;;;11.10;74.36;101510.59;15481026;28;20046;-52
2023/04/16 13:51:58;;;;;;;8.13;3.15;;;;;;;10.68;74.49;101479.25;15465831;23;20325;-85
2023/04/16 13:59:33;;;;;;;8.52;2.90;;;;;;;10.70;74.29;101486.09;15515658;28;20049;-84
2023/04/16 14:07:08;;;;;;;3.30;2.20;;;;;;;10.55;73.16;101441.56;15519690;28;20042;-82
2023/04/16 14:14:44;;;;;;;4.30;2.15;;;;;;;10.84;72.98;101416.38;15521657;28;20050;-84
2023/04/16 14:22:17;;;;;;;5.43;2.28;;;;;;;11.76;72.35;101520.97;15520575;23;20096;-50
2023/04/16 14:29:55;;;;;;;5.30;2.87;;;;;;;12.25;70.18;101515.38;15416521;28;20156;-52
2023/04/16 14:37:28;;;;;;;3.45;2.60;;;;;;;12.27;69.32;101519.75;15416821;28;20057;-51
2023/04/16 14:45:05;;;;;;;5.60;3.10;;;;;;;12.51;68.71;101503.03;15416903;28;20050;-48
2023/04/16 14:52:39;;;;;;;3.00;1.85;;;;;;;12.13;69.79;101526.97;15474339;23;20105;-53
2023/04/16 15:00:16;;;;;;;3.65;2.35;;;;;;;12.30;68.81;101522.84;15533328;28;20080;-48
2023/04/16 15:07:54;;;;;;;2.45;2.00;;;;;;;12.28;68.91;101534.88;15539288;28;20046;-49
2023/04/16 15:15:29;;;;;;;5.65;2.17;;;;;;;12.20;69.42;101536.69;15531614;28;20038;-50
2023/04/16 15:23:05;;;;;;;6.70;2.67;;;;;;;12.15;69.55;101533.78;15517096;28;20039;-49
2023/04/16 15:30:42;;;;;;;4.72;2.58;;;;;;;12.32;68.88;101542.34;15505037;28;20042;-51
2023/04/16 15:38:15;;;;;;;2.30;1.85;;;;;;;11.88;68.61;101545.44;15486019;28;20039;-50
2023/04/16 15:45:50;;;;;;;2.25;1.35;;;;;;;11.53;68.93;101548.13;15504387;28;20432;-50
2023/04/16 15:53:23;;;;;;;2.95;1.90;;;;;;;11.14;69.33;101560.22;15501322;28;20415;-51
2023/04/16 16:00:57;;;;;;;1.45;0.85;;;;;;;11.02;70.59;101566.31;15483878;28;20050;-48
2023/04/16 16:08:34;;;;;;;2.15;1.70;;;;;;;10.91;70.66;101575.72;15510662;28;20419;-53
2023/04/16 16:16:13;;;;;;;3.60;1.73;;;;;;;10.82;71.25;101569.66;15505031;28;20441;-50
2023/04/16 16:23:49;;;;;;;3.97;1.88;;;;;;;11.04;70.94;101575.00;15496657;28;20074;-50
2023/04/16 16:31:23;;;;;;;3.08;1.20;;;;;;;11.06;70.34;101560.38;15482977;28;20050;-52
2023/04/16 16:38:56;;;;;;;2.50;1.35;;;;;;;11.02;70.95;101585.97;15515596;28;20045;-51
2023/04/16 16:46:32;;;;;;;4.85;2.70;;;;;;;10.42;72.58;101571.06;15497919;28;20047;-54
2023/04/16 16:54:06;;;;;;;8.40;2.80;;;;;;;10.30;73.47;101594.03;15503620;28;20172;-50
2023/04/16 17:01:42;;;;;;;6.22;2.65;;;;;;;10.37;73.76;101600.34;15512184;28;20061;-52
2023/04/16 17:09:15;;;;;;;5.60;2.92;;;;;;;10.46;72.82;101616.13;15510152;28;20137;-49
2023/04/16 17:16:50;;;;;;;4.93;2.10;;;;;;;10.79;72.06;101617.53;15515170;28;20629;-49
2023/04/16 17:24:23;;;;;;;4.22;2.33;;;;;;;10.39;73.11;101625.13;15533129;28;20049;-47
2023/04/16 17:31:57;;;;;;;4.25;2.97;;;;;;;11.08;71.04;101630.03;15547589;28;20050;-49
2023/04/16 17:39:30;;;;;;;4.95;2.42;;;;;;;10.42;73.45;101640.84;15527187;28;20038;-49
2023/04/16 17:47:05;;;;;;;6.43;2.20;;;;;;;10.23;73.19;101643.06;15519034;28;20049;-49
2023/04/16 17:54:38;;;;;;;5.88;3.30;;;;;;;9.94;74.35;101653.78;15515958;28;20047;-49
2023/04/16 18:02:12;;;;;;;5.60;1.98;;;;;;;10.20;73.54;101661.38;15547187;28;20426;-49
2023/04/16 18:09:45;;;;;;;4.75;2.40;;;;;;;9.65;74.45;101673.31;15528428;28;20594;-52
2023/04/16 18:17:21;;;;;;;3.40;1.90;;;;;;;9.73;74.69;101683.16;15533784;28;20038;-50
2023/04/16 18:24:54;;;;;;;3.38;2.08;;;;;;;9.99;73.52;101699.66;15519391;28;20372;-50
2023/04/16 18:32:28;;;;;;;8.68;2.13;;;;;;;10.18;72.67;101695.59;15462641;28;20132;-49
2023/04/16 18:40:02;;;;;;;2.60;1.83;;;;;;;10.17;73.40;101705.50;15505794;28;20042;-53
2023/04/16 18:47:38;;;;;;;4.00;1.52;;;;;;;10.28;72.84;101714.97;15488901;28;20054;-57
2023/04/16 18:55:11;;;;;;;4.57;2.53;;;;;;;9.47;75.14;101721.06;15508798;28;20574;-55
2023/04/16 19:02:45;;;;;;;3.83;2.67;;;;;;;9.61;73.92;101729.16;15490484;28;20081;-54
2023/04/16 19:10:21;;;;;;;4.45;2.65;;;;;;;9.42;74.71;101737.69;15491570;28;20133;-53
2023/04/16 19:17:56;;;;;;;4.10;1.85;;;;;;;9.71;74.02;101735.09;15480429;28;20054;-53
2023/04/16 19:25:29;;;;;;;5.35;1.90;;;;;;;9.52;74.84;101740.13;15488582;28;20053;-52
2023/04/16 19:33:04;;;;;;;5.72;2.97;;;;;;;9.65;74.41;101746.56;15480926;28;20042;-54
2023/04/16 19:40:38;;;;;;;4.78;2.60;;;;;;;9.83;73.35;101740.03;15481686;28;20064;-54
2023/04/16 19:48:16;;;;;;;9.07;3.00;;;;;;;9.74;73.98;101747.28;15537069;28;20042;-53
2023/04/16 19:55:49;;;;;;;4.97;2.38;;;;;;;9.68;74.37;101750.72;15494763;28;20049;-52
2023/04/16 20:03:23;;;;;;;2.83;2.17;;;;;;;9.67;74.00;101749.03;15499814;28;20042;-50
2023/04/16 20:10:56;;;;;;;5.43;2.25;;;;;;;9.72;73.42;101754.69;15502679;28;20038;-49
2023/04/16 20:18:30;;;;;;;4.33;1.63;;;;;;;9.42;74.91;101757.28;15531286;28;20495;-51
2023/04/16 20:26:03;;;;;;;2.47;1.67;;;;;;;9.43;75.00;101758.94;15496124;28;20081;-51
2023/04/16 20:33:38;;;;;;;2.88;1.77;;;;;;;9.57;73.84;101757.31;15531621;28;20560;-49
2023/04/16 20:41:19;;;;;;;4.07;1.17;;;;;;;9.38;75.07;101768.53;15552366;28;20038;-50
2023/04/16 20:48:53;;;;;;;4.22;2.22;;;;;;;9.25;74.40;101768.25;15515851;28;20065;-50
2023/04/16 20:56:26;;;;;;;4.18;2.20;;;;;;;9.10;75.04;101774.38;15510474;28;20046;-55
2023/04/16 21:04:00;;;;;;;;;;;;;;;8.97;75.40;101776.75;15506174;28;20076;-52
2023/04/16 21:11:36;;;;;;;4.22;2.28;;;;;;;8.97;75.32;101779.44;15538362;28;20391;-52
2023/04/16 21:19:11;;;;;;;2.35;1.95;;;;;;;8.84;76.10;101776.47;15519934;28;20053;-52
2023/04/16 21:26:47;;;;;;;2.00;1.45;;;;;;;8.51;76.85;101784.59;15508653;28;20100;-52
2023/04/16 21:34:22;;;;;;;2.95;1.15;;;;;;;8.72;76.10;101780.53;15519660;28;20103;-53
2023/04/16 21:41:55;;;;;;;1.17;1.02;;;;;;;8.45;76.45;101773.78;15498971;28;20050;-51
2023/04/16 21:49:29;;;;;;;6.07;1.90;;;;;;;8.37;76.69;101780.78;15496924;28;20070;-53
2023/04/16 21:57:02;;;;;;;6.95;3.55;;;;;;;8.30;76.51;101787.81;15493400;28;20085;-51
2023/04/16 22:04:37;;;;;;;11.70;2.03;;;;;;;8.55;76.09;101783.28;15485044;28;20039;-53
2023/04/16 22:12:10;;;;;;;3.83;1.15;;;;;;;8.35;76.37;101787.31;15494944;28;20046;-52
2023/04/16 22:19:45;;;;;;;3.80;2.05;;;;;;;8.36;76.34;101788.97;15505942;28;20430;-50
2023/04/16 22:27:18;;;;;;;3.50;2.67;;;;;;;8.33;76.67;101800.00;15522976;28;20058;-53
2023/04/16 22:34:52;;;;;;;2.97;2.07;;;;;;;8.37;76.60;101804.88;15547440;28;20054;-51
2023/04/16 22:42:25;;;;;;;2.33;1.77;;;;;;;8.25;76.41;101798.16;15557251;28;20112;-52
2023/04/16 22:50:00;;;;;;;4.50;2.20;;;;;;;8.00;76.93;101796.50;15545721;28;20046;-51
2023/04/16 22:57:36;;;;;;;2.72;2.03;;;;;;;8.33;76.11;101795.47;15502852;28;20301;-52
2023/04/16 23:05:10;;;;;;;4.30;2.57;;;;;;;7.98;76.93;101799.38;15540597;28;20046;-51
2023/04/16 23:12:43;;;;;;;3.22;2.38;;;;;;;8.11;76.38;101797.03;15554095;28;20422;-52
2023/04/16 23:20:17;;;;;;;4.43;1.97;;;;;;;8.05;76.57;101802.19;15526481;28;20258;-50
2023/04/16 23:27:50;;;;;;;2.85;2.10;;;;;;;8.00;76.86;101801.84;15522602;28;20455;-54
2023/04/16 23:35:25;;;;;;;;;;;;;;;7.92;77.03;101808.03;15521078;28;20064;-51
2023/04/16 23:42:58;;;;;;;3.08;1.73;;;;;;;8.09;75.64;101796.34;15523588;28;20454;-53
2023/04/16 23:50:32;;;;;;;4.33;2.10;;;;;;;8.05;75.43;101799.53;15521223;28;20253;-52
2023/04/16 23:58:05;;;;;;;4.53;2.08;;;;;;;8.04;75.67;101793.34;15511814;28;20129;-51
